»·PEaware :: N513KQ KSNA-KSNA

N513KQ :: KSNA-KSNA

FLIGHT INFORMATION

Flight Status: Arrived
Operator: Privately registered:
United States
More flights under this callsign
Pilot: Stefan D. (14429)
Aircraft: AIRBUS A320
(A320)
More flights by this aircraft type
Origin: KSNA John Wayne-Orange Co
United States
Destination: KSNA John Wayne-Orange Co
United States
More flights between these airports :: More routes between these airports
Route: +SLI
File this flight plan on PilotEdge
Remarks: I-1
Altitude:
(Current/Filed)
3,000ft
Speed:
(Current/Filed)
220kts
Departed: 11-Mar-18 02:24 PM
Arrived: 11-Mar-18 02:43 PM
Distance/Time
Traveled:
0nm/0:19
Distance/Time
To Go:
Arrived

Flight Plot

Page will automatically refresh every two minutes.


Map Options




Map Legend


Flown Route
Filed Route
Departure Airport
Arrival Airport
Navaid (VOR, NDB)
Fix

Horizontal Profiles

Position Reports

Time Latitude Longitude Heading Altitude Ground
Speed
11-Mar-18 14:03 33.671665 -117.867628 207 65ft 0kts
11-Mar-18 14:04 33.671665 -117.867628 207 65ft 0kts
11-Mar-18 14:05 33.671665 -117.867628 207 65ft 0kts
11-Mar-18 14:06 33.671665 -117.867628 207 65ft 0kts
11-Mar-18 14:07 33.671665 -117.867628 207 65ft 0kts
11-Mar-18 14:08 33.671665 -117.867628 207 65ft 0kts
11-Mar-18 14:09 33.671665 -117.867628 207 65ft 0kts
11-Mar-18 14:10 33.671664 -117.867628 207 65ft 0kts
11-Mar-18 14:11 33.671664 -117.867628 207 65ft 0kts
11-Mar-18 14:12 33.671664 -117.867628 207 65ft 0kts
11-Mar-18 14:13 33.671664 -117.867628 207 65ft 0kts
11-Mar-18 14:14 33.671664 -117.867628 207 65ft 0kts
11-Mar-18 14:15 33.671664 -117.867628 207 65ft 0kts
11-Mar-18 14:16 33.671664 -117.867628 207 65ft 0kts
11-Mar-18 14:17 33.672135 -117.868101 27 65ft 10kts
11-Mar-18 14:18 33.676139 -117.865188 27 65ft 26kts
11-Mar-18 14:19 33.680605 -117.862995 299 65ft 2kts
11-Mar-18 14:20 33.680606 -117.862996 299 65ft 0kts
11-Mar-18 14:21 33.681179 -117.864280 296 65ft 0kts
11-Mar-18 14:22 33.681179 -117.864280 296 65ft 0kts
11-Mar-18 14:23 33.677966 -117.867371 207 65ft 104kts
11-Mar-18 14:24 33.635213 -117.892173 190 3220ft 206kts
11-Mar-18 14:25 33.579748 -117.900778 187 5016ft 205kts
11-Mar-18 14:26 33.523990 -117.900397 141 5030ft 212kts
11-Mar-18 14:27 33.538129 -117.841243 32 5031ft 232kts
11-Mar-18 14:28 33.591339 -117.801809 32 5029ft 231kts
11-Mar-18 14:29 33.644798 -117.761816 32 5032ft 228kts
11-Mar-18 14:30 33.695279 -117.723214 32 5016ft 217kts
11-Mar-18 14:31 33.741891 -117.686249 32 5018ft 202kts
11-Mar-18 14:32 33.786557 -117.649425 32 5018ft 199kts
11-Mar-18 14:33 33.831958 -117.639650 308 5022ft 190kts
11-Mar-18 14:34 33.859605 -117.689754 302 5014ft 189kts
11-Mar-18 14:35 33.886739 -117.740659 302 5009ft 190kts
11-Mar-18 14:36 33.864753 -117.780109 175 4533ft 184kts
11-Mar-18 14:37 33.817468 -117.781070 201 3123ft 167kts
11-Mar-18 14:38 33.782910 -117.800994 209 2468ft 142kts
11-Mar-18 14:39 33.752175 -117.820405 207 1601ft 117kts
11-Mar-18 14:40 33.723908 -117.838305 206 1014ft 116kts
11-Mar-18 14:41 33.695951 -117.856012 206 412ft 115kts
11-Mar-18 14:42 33.672436 -117.870885 208 65ft 36kts
11-Mar-18 14:43 33.669234 -117.871709 134 65ft 0kts
11-Mar-18 14:44 33.669234 -117.871709 134 65ft 0kts
11-Mar-18 14:45 33.669062 -117.871391 109 65ft 4kts
11-Mar-18 14:46 33.671218 -117.868749 35 65ft 10kts
11-Mar-18 14:47 33.672444 -117.866601 118 65ft 0kts
11-Mar-18 14:48 33.672444 -117.866601 118 65ft 0kts
11-Mar-18 14:49 33.672444 -117.866601 118 65ft 0kts
11-Mar-18 14:50 33.672444 -117.866601 118 65ft 0kts
11-Mar-18 14:51 33.672444 -117.866601 118 65ft 0kts
11-Mar-18 14:52 33.672444 -117.866601 118 65ft 0kts
11-Mar-18 14:53 33.672444 -117.866601 118 65ft 0kts
11-Mar-18 14:54 33.672444 -117.866601 118 65ft 0kts
11-Mar-18 14:55 33.672444 -117.866601 118 65ft 0kts
11-Mar-18 14:56 33.672444 -117.866601 118 65ft 0kts

Navigation Log

Ident Type
Flight plan parsing failed, navigation log unavailable